createdAt,value
2017-12-29T00:00:24.593Z,7.0
2017-12-29T00:01:26.778Z,6.9
2017-12-29T00:02:28.126Z,6.9
2017-12-29T00:03:29.481Z,6.9
2017-12-29T00:04:31.653Z,7.0
2017-12-29T00:05:33.005Z,7.0
2017-12-29T00:06:34.363Z,6.9
2017-12-29T00:07:35.725Z,6.9
2017-12-29T00:08:37.079Z,6.8
2017-12-29T00:09:38.432Z,6.9
2017-12-29T00:10:39.785Z,6.7
2017-12-29T00:11:41.138Z,6.7
2017-12-29T00:12:42.500Z,6.7
2017-12-29T00:13:43.862Z,6.7
2017-12-29T00:14:45.218Z,6.7
2017-12-29T00:15:46.580Z,6.7
2017-12-29T00:16:47.946Z,6.8
2017-12-29T00:17:49.300Z,6.9
2017-12-29T00:18:50.658Z,6.9
2017-12-29T00:19:52.015Z,6.9
2017-12-29T00:20:53.366Z,7.0
2017-12-29T00:21:54.733Z,6.9
2017-12-29T00:22:56.907Z,6.8
2017-12-29T00:23:58.899Z,6.9
2017-12-29T00:25:00.261Z,6.8
2017-12-29T00:26:01.615Z,6.8
2017-12-29T00:27:02.978Z,7.0
2017-12-29T00:28:04.347Z,6.9
2017-12-29T00:29:05.697Z,7.0
2017-12-29T00:30:07.064Z,7.0
2017-12-29T00:31:08.422Z,6.9
2017-12-29T00:32:09.779Z,6.9
2017-12-29T00:33:11.135Z,6.9
2017-12-29T00:34:12.491Z,6.9
2017-12-29T00:35:13.843Z,6.9
2017-12-29T00:36:15.205Z,6.9
2017-12-29T00:37:16.558Z,6.8
2017-12-29T00:38:17.917Z,6.9
2017-12-29T00:39:19.272Z,6.8
2017-12-29T00:40:20.635Z,6.8
2017-12-29T00:41:21.988Z,6.9
2017-12-29T00:42:23.349Z,6.9
2017-12-29T00:43:24.708Z,6.9
2017-12-29T00:44:26.064Z,6.8
2017-12-29T00:45:27.423Z,6.7
2017-12-29T00:46:28.782Z,6.7
2017-12-29T00:47:30.138Z,6.7
2017-12-29T00:48:31.501Z,6.8
2017-12-29T00:49:32.851Z,6.7
2017-12-29T00:50:34.210Z,6.7
2017-12-29T00:51:36.147Z,6.7
2017-12-29T00:52:37.503Z,6.7
2017-12-29T00:53:38.867Z,6.6
2017-12-29T00:54:40.224Z,6.7
2017-12-29T00:55:41.584Z,6.7
2017-12-29T00:56:42.946Z,6.7
2017-12-29T00:57:44.310Z,6.7
2017-12-29T00:58:45.664Z,6.9
2017-12-29T00:59:47.018Z,6.8
2017-12-29T01:00:48.376Z,6.8
2017-12-29T01:01:49.734Z,6.8
2017-12-29T01:02:51.087Z,6.7
2017-12-29T01:03:52.445Z,6.7
2017-12-29T01:04:53.799Z,6.7
2017-12-29T01:05:55.159Z,6.7
2017-12-29T01:06:56.518Z,6.7
2017-12-29T01:07:57.875Z,6.7
2017-12-29T01:08:59.234Z,6.7
2017-12-29T01:10:00.589Z,6.6
2017-12-29T01:11:01.950Z,6.6
2017-12-29T01:12:03.301Z,6.4
2017-12-29T01:13:04.661Z,6.5
2017-12-29T01:14:06.015Z,6.6
2017-12-29T01:15:07.369Z,6.6
2017-12-29T01:16:08.721Z,6.6
2017-12-29T01:17:10.080Z,6.5
2017-12-29T01:18:11.438Z,6.7
2017-12-29T01:19:12.794Z,6.7
2017-12-29T01:20:14.155Z,6.7
2017-12-29T01:21:15.511Z,6.7
2017-12-29T01:22:16.870Z,6.7
2017-12-29T01:23:18.217Z,6.7
2017-12-29T01:24:19.575Z,6.7
2017-12-29T01:25:20.943Z,6.7
2017-12-29T01:26:22.312Z,6.7
2017-12-29T01:27:23.673Z,6.7
2017-12-29T01:28:25.032Z,6.7
2017-12-29T01:29:26.382Z,6.7
2017-12-29T01:30:27.773Z,6.7
2017-12-29T01:31:29.122Z,6.8
2017-12-29T01:32:30.481Z,6.9
2017-12-29T01:33:31.846Z,7.0
2017-12-29T01:34:33.209Z,7.0
2017-12-29T01:35:34.558Z,6.8
2017-12-29T01:36:35.915Z,6.7
2017-12-29T01:37:37.276Z,6.7
2017-12-29T01:38:38.631Z,6.7
2017-12-29T01:39:39.990Z,6.7
2017-12-29T01:40:41.346Z,6.7
2017-12-29T01:41:42.703Z,6.7
2017-12-29T01:42:44.065Z,6.7
2017-12-29T01:43:45.415Z,6.7
2017-12-29T01:44:46.770Z,6.7
2017-12-29T01:45:48.129Z,6.7
2017-12-29T01:46:49.492Z,6.8
2017-12-29T01:47:50.844Z,6.6
2017-12-29T01:48:52.212Z,6.6
2017-12-29T01:49:53.558Z,6.5
2017-12-29T01:50:54.917Z,6.6
2017-12-29T01:51:56.275Z,6.7
2017-12-29T01:52:57.627Z,6.7
2017-12-29T01:53:58.989Z,6.7
2017-12-29T01:55:00.349Z,6.7
2017-12-29T01:56:01.703Z,6.6
2017-12-29T01:57:03.064Z,6.6
2017-12-29T01:58:04.412Z,6.6
2017-12-29T01:59:05.832Z,6.5
2017-12-29T02:00:07.187Z,6.6
2017-12-29T02:01:08.548Z,6.8
2017-12-29T02:02:09.909Z,6.7
2017-12-29T02:03:11.264Z,6.8
2017-12-29T02:04:12.618Z,6.8
2017-12-29T02:05:13.970Z,6.7
2017-12-29T02:06:15.328Z,6.7
2017-12-29T02:07:16.682Z,6.6
2017-12-29T02:08:18.047Z,6.5
2017-12-29T02:09:19.401Z,6.6
2017-12-29T02:10:20.758Z,6.6
2017-12-29T02:11:22.110Z,6.7
2017-12-29T02:12:23.474Z,6.6
2017-12-29T02:13:24.827Z,6.5
2017-12-29T02:14:26.185Z,6.5
2017-12-29T02:15:27.542Z,6.4
2017-12-29T02:16:28.899Z,6.4
2017-12-29T02:17:30.269Z,6.4
2017-12-29T02:18:31.628Z,6.4
2017-12-29T02:19:32.979Z,6.4
2017-12-29T02:20:34.337Z,6.4
2017-12-29T02:21:35.694Z,6.5
2017-12-29T02:22:37.053Z,6.6
2017-12-29T02:23:38.412Z,6.6
2017-12-29T02:24:39.771Z,6.6
2017-12-29T02:25:41.130Z,6.7
2017-12-29T02:26:42.484Z,6.8
2017-12-29T02:27:43.838Z,6.7
2017-12-29T02:28:45.191Z,6.9
2017-12-29T02:29:46.542Z,6.9
2017-12-29T02:30:47.895Z,6.9
2017-12-29T02:31:49.261Z,6.8
2017-12-29T02:32:50.611Z,6.8
2017-12-29T02:33:51.964Z,6.8
2017-12-29T02:34:53.324Z,6.8
2017-12-29T02:35:54.673Z,6.9
2017-12-29T02:36:56.035Z,6.9
2017-12-29T02:37:57.404Z,6.8
2017-12-29T02:38:58.744Z,6.8
2017-12-29T02:40:00.100Z,6.8
2017-12-29T02:41:01.454Z,6.9
2017-12-29T02:42:02.819Z,6.9
2017-12-29T02:43:04.172Z,6.8
2017-12-29T02:44:05.523Z,6.8
2017-12-29T02:45:06.883Z,6.7
2017-12-29T02:46:08.999Z,6.7
2017-12-29T02:47:10.356Z,6.7
2017-12-29T02:48:11.712Z,6.7
2017-12-29T02:49:13.070Z,6.8
2017-12-29T02:50:14.428Z,6.9
2017-12-29T02:51:15.786Z,6.8
2017-12-29T02:52:17.148Z,6.7
2017-12-29T02:53:18.508Z,6.6
2017-12-29T02:54:19.860Z,6.7
2017-12-29T02:55:21.212Z,6.7
2017-12-29T02:56:22.569Z,6.6
2017-12-29T02:57:23.926Z,6.7
2017-12-29T02:58:25.287Z,6.7
2017-12-29T02:59:26.650Z,6.5
2017-12-29T03:00:28.001Z,6.6
2017-12-29T03:01:29.363Z,6.7
2017-12-29T03:02:30.710Z,6.7
2017-12-29T03:03:32.059Z,6.7
2017-12-29T03:04:33.421Z,6.7
2017-12-29T03:05:34.788Z,6.6
2017-12-29T03:06:36.147Z,6.7
2017-12-29T03:07:37.498Z,6.8
2017-12-29T03:08:38.857Z,6.8
2017-12-29T03:09:40.211Z,6.7
2017-12-29T03:10:41.573Z,6.8
2017-12-29T03:11:42.927Z,6.9
2017-12-29T03:12:44.287Z,6.8
2017-12-29T03:13:45.644Z,6.7
2017-12-29T03:14:46.995Z,6.7
2017-12-29T03:15:48.358Z,6.7
2017-12-29T03:16:49.707Z,6.7
2017-12-29T03:17:51.062Z,6.7
2017-12-29T03:18:52.416Z,6.7
2017-12-29T03:19:53.776Z,6.7
2017-12-29T03:20:55.131Z,6.7
2017-12-29T03:21:56.492Z,6.9
2017-12-29T03:22:57.847Z,6.7
2017-12-29T03:23:59.203Z,6.7
2017-12-29T03:25:00.553Z,6.7
2017-12-29T03:26:01.914Z,6.7
2017-12-29T03:27:03.264Z,6.6
2017-12-29T03:28:04.625Z,6.7
2017-12-29T03:29:05.983Z,6.7
2017-12-29T03:30:07.341Z,6.8
2017-12-29T03:31:08.700Z,6.7
2017-12-29T03:32:10.048Z,6.7
2017-12-29T03:33:11.407Z,6.8
2017-12-29T03:34:12.767Z,6.8
2017-12-29T03:35:14.126Z,6.8
2017-12-29T03:36:15.476Z,6.8
2017-12-29T03:37:16.832Z,6.7
2017-12-29T03:38:18.190Z,6.7
2017-12-29T03:39:19.542Z,6.7
2017-12-29T03:40:20.901Z,6.7
2017-12-29T03:41:22.253Z,6.8
2017-12-29T03:42:23.612Z,6.8
2017-12-29T03:43:24.982Z,6.7
2017-12-29T03:44:26.331Z,6.7
2017-12-29T03:45:27.690Z,6.8
2017-12-29T03:46:29.054Z,6.7
2017-12-29T03:47:30.405Z,6.7
2017-12-29T03:48:31.767Z,6.7
2017-12-29T03:49:33.122Z,6.7
2017-12-29T03:50:34.480Z,6.9
2017-12-29T03:51:35.838Z,6.9
2017-12-29T03:52:37.189Z,6.8
2017-12-29T03:53:38.544Z,6.9
2017-12-29T03:54:39.906Z,6.7
2017-12-29T03:55:41.262Z,6.7
2017-12-29T03:56:42.631Z,6.7
2017-12-29T03:57:43.984Z,6.6
2017-12-29T03:58:45.346Z,6.6
2017-12-29T03:59:46.713Z,6.7
2017-12-29T04:00:48.059Z,6.6
2017-12-29T04:01:49.415Z,6.8
2017-12-29T04:02:50.778Z,6.8
2017-12-29T04:03:52.136Z,6.9
2017-12-29T04:04:53.492Z,6.8
2017-12-29T04:05:54.849Z,6.9
2017-12-29T04:06:56.200Z,6.9
2017-12-29T04:07:57.558Z,6.9
2017-12-29T04:08:58.917Z,7.0
2017-12-29T04:10:00.273Z,7.0
2017-12-29T04:11:01.632Z,7.0
2017-12-29T04:12:02.993Z,7.0
2017-12-29T04:13:04.345Z,7.0
2017-12-29T04:14:05.697Z,7.0
2017-12-29T04:15:07.055Z,7.0
2017-12-29T04:16:08.417Z,7.1
2017-12-29T04:17:09.773Z,7.1
2017-12-29T04:18:11.138Z,7.0
2017-12-29T04:19:12.491Z,7.1
2017-12-29T04:20:13.848Z,7.1
2017-12-29T04:21:15.198Z,7.0
2017-12-29T04:22:16.552Z,7.0
2017-12-29T04:23:17.914Z,7.0
2017-12-29T04:24:19.266Z,7.0
2017-12-29T04:25:20.636Z,7.1
2017-12-29T04:26:21.998Z,7.0
2017-12-29T04:27:23.352Z,7.1
2017-12-29T04:28:24.708Z,7.1
2017-12-29T04:29:26.067Z,7.1
2017-12-29T04:30:27.424Z,7.0
2017-12-29T04:31:28.779Z,7.1
2017-12-29T04:32:30.136Z,7.1
2017-12-29T04:33:31.494Z,7.0
2017-12-29T04:34:32.852Z,6.8
2017-12-29T04:35:34.204Z,6.9
2017-12-29T04:36:35.561Z,6.9
2017-12-29T04:37:36.919Z,6.9
2017-12-29T04:38:38.277Z,6.9
2017-12-29T04:39:39.638Z,6.9
2017-12-29T04:40:40.992Z,6.9
2017-12-29T04:41:42.344Z,6.9
2017-12-29T04:42:43.700Z,6.9
2017-12-29T04:43:45.049Z,7.0
2017-12-29T04:44:46.403Z,7.0
2017-12-29T04:45:47.763Z,7.0
2017-12-29T04:46:49.121Z,6.9
2017-12-29T04:47:50.475Z,6.9
2017-12-29T04:48:51.833Z,6.9
2017-12-29T04:49:53.194Z,6.9
2017-12-29T04:50:54.543Z,6.9
2017-12-29T04:51:55.923Z,7.0
2017-12-29T04:52:57.281Z,7.0
2017-12-29T04:53:58.640Z,7.0
2017-12-29T04:54:59.996Z,7.0
2017-12-29T04:56:01.343Z,7.0
2017-12-29T04:57:02.702Z,7.0
2017-12-29T04:58:04.050Z,7.1
2017-12-29T04:59:06.077Z,6.9
2017-12-29T05:00:07.436Z,6.9
2017-12-29T05:01:08.792Z,6.9
2017-12-29T05:02:10.156Z,6.9
2017-12-29T05:03:11.503Z,7.0
2017-12-29T05:04:12.869Z,6.9
2017-12-29T05:05:14.231Z,6.9
2017-12-29T05:06:15.586Z,7.0
2017-12-29T05:07:16.949Z,7.0
2017-12-29T05:08:18.299Z,7.1
2017-12-29T05:09:19.662Z,6.9
2017-12-29T05:10:21.016Z,6.9
2017-12-29T05:11:22.374Z,7.0
2017-12-29T05:12:23.731Z,7.1
2017-12-29T05:13:25.084Z,6.9
2017-12-29T05:14:26.451Z,7.0
2017-12-29T05:15:27.808Z,7.0
2017-12-29T05:16:29.166Z,7.0
2017-12-29T05:17:30.523Z,7.0
2017-12-29T05:18:31.878Z,7.1
2017-12-29T05:19:33.232Z,7.2
2017-12-29T05:20:34.587Z,7.0
2017-12-29T05:21:35.946Z,7.1
2017-12-29T05:22:37.301Z,7.1
2017-12-29T05:23:38.661Z,7.0
2017-12-29T05:24:40.006Z,7.1
2017-12-29T05:25:41.362Z,7.0
2017-12-29T05:26:42.723Z,7.0
2017-12-29T05:27:44.077Z,7.0
2017-12-29T05:28:45.435Z,7.2
2017-12-29T05:29:46.799Z,7.2
2017-12-29T05:30:48.158Z,7.2
2017-12-29T05:31:49.516Z,7.1
2017-12-29T05:32:50.869Z,7.0
2017-12-29T05:33:52.223Z,7.1
2017-12-29T05:34:53.581Z,7.0
2017-12-29T05:35:54.939Z,7.0
2017-12-29T05:36:56.297Z,7.1
2017-12-29T05:37:57.660Z,7.0
2017-12-29T05:38:59.016Z,7.1
2017-12-29T05:40:00.375Z,7.1
2017-12-29T05:41:01.736Z,7.0
2017-12-29T05:42:03.091Z,7.1
2017-12-29T05:43:04.442Z,7.2
2017-12-29T05:44:05.798Z,7.0
2017-12-29T05:45:07.162Z,7.0
2017-12-29T05:46:08.516Z,7.0
2017-12-29T05:47:09.865Z,7.2
2017-12-29T05:48:11.228Z,7.1
2017-12-29T05:49:13.367Z,7.1
2017-12-29T05:50:14.751Z,7.0
2017-12-29T05:51:16.106Z,7.1
2017-12-29T05:52:17.470Z,7.0
2017-12-29T05:53:18.822Z,7.0
2017-12-29T05:54:20.182Z,7.0
2017-12-29T05:55:21.538Z,7.0
2017-12-29T05:56:22.897Z,7.0
2017-12-29T05:57:24.263Z,7.0
2017-12-29T05:58:25.616Z,7.1
2017-12-29T05:59:26.972Z,7.1
2017-12-29T06:00:28.324Z,7.0
2017-12-29T06:01:29.685Z,7.1
2017-12-29T06:02:31.041Z,6.9
2017-12-29T06:03:32.398Z,6.8
2017-12-29T06:04:33.756Z,6.8
2017-12-29T06:05:35.113Z,6.9
2017-12-29T06:06:36.475Z,6.9
2017-12-29T06:07:37.830Z,7.0
2017-12-29T06:08:39.182Z,7.0
2017-12-29T06:09:40.545Z,7.1
2017-12-29T06:10:41.898Z,7.1
2017-12-29T06:11:43.260Z,7.1
2017-12-29T06:12:44.614Z,7.1
2017-12-29T06:13:45.979Z,7.1
2017-12-29T06:14:47.335Z,7.2
2017-12-29T06:15:48.687Z,7.1
2017-12-29T06:16:50.044Z,7.1
2017-12-29T06:17:51.398Z,7.2
2017-12-29T06:18:52.760Z,7.2
2017-12-29T06:19:54.112Z,7.2
2017-12-29T06:20:55.470Z,7.2
2017-12-29T06:21:56.826Z,7.2
2017-12-29T06:22:58.181Z,7.2
2017-12-29T06:23:59.540Z,7.3
2017-12-29T06:25:00.899Z,7.2
2017-12-29T06:26:02.253Z,7.3
2017-12-29T06:27:03.609Z,7.2
2017-12-29T06:28:04.967Z,7.2
2017-12-29T06:29:06.324Z,7.2
2017-12-29T06:30:07.683Z,7.1
2017-12-29T06:31:09.037Z,7.0
2017-12-29T06:32:10.398Z,7.0
2017-12-29T06:33:11.756Z,7.1
2017-12-29T06:34:13.115Z,7.2
2017-12-29T06:35:14.473Z,7.0
2017-12-29T06:36:15.837Z,7.1
2017-12-29T06:37:17.192Z,7.1
2017-12-29T06:38:18.550Z,7.1
2017-12-29T06:39:19.903Z,7.1
2017-12-29T06:40:21.263Z,7.1
2017-12-29T06:41:22.621Z,7.2
2017-12-29T06:42:23.982Z,7.1
2017-12-29T06:43:25.330Z,7.2
2017-12-29T06:44:26.697Z,7.0
2017-12-29T06:45:28.053Z,7.2
2017-12-29T06:46:29.419Z,7.1
2017-12-29T06:47:30.790Z,7.1
2017-12-29T06:48:32.146Z,7.2
2017-12-29T06:49:33.511Z,7.2
2017-12-29T06:50:34.868Z,7.2
2017-12-29T06:51:36.221Z,7.1
2017-12-29T06:52:37.580Z,7.1
2017-12-29T06:53:38.936Z,7.0
2017-12-29T06:54:40.297Z,7.1
2017-12-29T06:55:41.652Z,7.0
2017-12-29T06:56:43.020Z,7.0
2017-12-29T06:57:44.376Z,7.1
2017-12-29T06:58:45.725Z,6.9
2017-12-29T06:59:47.082Z,7.0
2017-12-29T07:00:48.437Z,6.9
2017-12-29T07:01:50.323Z,7.0
2017-12-29T07:02:51.677Z,6.9
2017-12-29T07:03:53.038Z,6.9
2017-12-29T07:04:54.394Z,7.0
2017-12-29T07:05:55.756Z,7.0
2017-12-29T07:06:57.117Z,7.0
2017-12-29T07:07:58.474Z,7.0
2017-12-29T07:08:59.832Z,7.1
2017-12-29T07:10:01.191Z,7.1
2017-12-29T07:11:02.550Z,7.1
2017-12-29T07:12:03.907Z,7.2
2017-12-29T07:13:05.267Z,7.2
2017-12-29T07:14:06.626Z,7.2
2017-12-29T07:15:07.992Z,7.1
2017-12-29T07:16:09.353Z,7.1
2017-12-29T07:17:10.705Z,7.1
2017-12-29T07:18:12.066Z,7.1
2017-12-29T07:19:13.422Z,7.2
2017-12-29T07:20:14.780Z,7.2
2017-12-29T07:21:16.132Z,7.2
2017-12-29T07:22:17.489Z,7.1
2017-12-29T07:23:18.849Z,7.2
2017-12-29T07:24:20.202Z,7.1
2017-12-29T07:25:21.561Z,7.2
2017-12-29T07:26:22.922Z,7.2
2017-12-29T07:27:24.276Z,7.2
2017-12-29T07:28:25.634Z,7.4
2017-12-29T07:29:26.991Z,7.5
2017-12-29T07:30:28.345Z,7.4
2017-12-29T07:31:29.703Z,7.5
2017-12-29T07:32:31.059Z,7.5
2017-12-29T07:33:32.418Z,7.6
2017-12-29T07:34:33.777Z,7.6
2017-12-29T07:35:35.131Z,7.6
2017-12-29T07:36:36.489Z,7.7
2017-12-29T07:37:37.850Z,7.6
2017-12-29T07:38:39.208Z,7.7
2017-12-29T07:39:40.560Z,7.7
2017-12-29T07:40:41.922Z,7.5
2017-12-29T07:41:43.278Z,7.6
2017-12-29T07:42:44.645Z,7.6
2017-12-29T07:43:45.999Z,7.5
2017-12-29T07:44:47.362Z,7.5
2017-12-29T07:45:48.722Z,7.5
2017-12-29T07:46:50.086Z,7.5
2017-12-29T07:47:51.439Z,7.5
2017-12-29T07:48:52.791Z,7.4
2017-12-29T07:49:54.154Z,7.4
2017-12-29T07:50:56.421Z,7.4
2017-12-29T07:51:56.817Z,7.4
2017-12-29T07:52:58.171Z,7.2
2017-12-29T07:53:59.528Z,7.2
2017-12-29T07:55:00.885Z,7.3
2017-12-29T07:56:02.245Z,7.3
2017-12-29T07:57:03.600Z,7.2
2017-12-29T07:58:04.960Z,7.3
2017-12-29T07:59:06.324Z,7.4
2017-12-29T08:00:07.689Z,7.3
2017-12-29T08:01:09.047Z,7.2
2017-12-29T08:02:10.407Z,7.2
2017-12-29T08:03:11.762Z,7.3
2017-12-29T08:04:13.123Z,7.2
2017-12-29T08:05:14.477Z,7.3
2017-12-29T08:06:15.840Z,7.3
2017-12-29T08:07:17.196Z,7.3
2017-12-29T08:08:18.552Z,7.2
2017-12-29T08:09:19.914Z,7.2
2017-12-29T08:10:21.748Z,7.3
2017-12-29T08:11:23.110Z,7.4
2017-12-29T08:12:24.469Z,7.3
2017-12-29T08:13:25.830Z,7.2
2017-12-29T08:14:27.190Z,7.2
2017-12-29T08:15:28.549Z,7.1
2017-12-29T08:16:29.908Z,7.2
2017-12-29T08:17:31.264Z,7.1
2017-12-29T08:18:32.628Z,7.1
2017-12-29T08:19:33.992Z,7.2
2017-12-29T08:20:35.346Z,7.3
2017-12-29T08:21:36.709Z,7.2
2017-12-29T08:22:38.091Z,7.3
2017-12-29T08:23:39.422Z,7.3
2017-12-29T08:24:40.782Z,7.4
2017-12-29T08:25:42.142Z,7.5
2017-12-29T08:26:43.491Z,7.5
2017-12-29T08:27:44.854Z,7.5
2017-12-29T08:28:46.214Z,7.6
2017-12-29T08:29:47.587Z,7.7
2017-12-29T08:30:48.939Z,7.6
2017-12-29T08:31:50.305Z,7.7
2017-12-29T08:32:51.668Z,7.6
2017-12-29T08:33:53.020Z,7.5
2017-12-29T08:34:54.381Z,7.5
2017-12-29T08:35:55.776Z,7.5
2017-12-29T08:36:57.150Z,7.5
2017-12-29T08:37:58.507Z,7.4
2017-12-29T08:38:59.873Z,7.4
2017-12-29T08:40:01.251Z,7.5
2017-12-29T08:41:02.628Z,7.5
2017-12-29T08:42:04.004Z,7.4
2017-12-29T08:43:05.382Z,7.4
2017-12-29T08:44:06.745Z,7.4
2017-12-29T08:45:08.103Z,7.4
2017-12-29T08:46:09.500Z,7.4
2017-12-29T08:47:10.856Z,7.4
2017-12-29T08:48:12.230Z,7.3
2017-12-29T08:49:13.587Z,7.5
2017-12-29T08:50:14.945Z,7.3
2017-12-29T08:51:16.307Z,7.4
2017-12-29T08:52:17.666Z,7.4
2017-12-29T08:53:19.027Z,7.4
2017-12-29T08:54:20.384Z,7.3
2017-12-29T08:55:21.750Z,7.3
2017-12-29T08:56:23.108Z,7.3
2017-12-29T08:57:24.467Z,7.3
2017-12-29T08:58:25.821Z,7.3
2017-12-29T08:59:27.184Z,7.3
2017-12-29T09:00:28.538Z,7.3
2017-12-29T09:01:29.899Z,7.4
2017-12-29T09:02:31.259Z,7.3
2017-12-29T09:03:32.628Z,7.3
2017-12-29T09:04:33.994Z,7.3
2017-12-29T09:05:35.350Z,7.2
2017-12-29T09:06:36.710Z,7.3
2017-12-29T09:07:38.072Z,7.2
2017-12-29T09:08:39.423Z,7.1
2017-12-29T09:09:40.782Z,7.3
2017-12-29T09:10:42.143Z,7.5
2017-12-29T09:11:43.514Z,7.6
2017-12-29T09:12:44.877Z,7.7
2017-12-29T09:13:46.234Z,7.6
2017-12-29T09:14:47.597Z,7.7
2017-12-29T09:15:48.953Z,7.7
2017-12-29T09:16:50.307Z,7.7
2017-12-29T09:17:51.669Z,7.7
2017-12-29T09:18:53.033Z,7.8
2017-12-29T09:19:54.395Z,7.9
2017-12-29T09:20:55.756Z,7.9
2017-12-29T09:21:57.113Z,7.8
2017-12-29T09:22:58.469Z,7.8
2017-12-29T09:23:59.831Z,7.7
2017-12-29T09:25:01.191Z,7.7
2017-12-29T09:26:02.550Z,7.8
2017-12-29T09:27:03.915Z,7.8
2017-12-29T09:28:05.277Z,7.8
2017-12-29T09:29:06.635Z,7.7
2017-12-29T09:30:08.001Z,7.6
2017-12-29T09:31:09.366Z,7.6
2017-12-29T09:32:10.725Z,7.6
2017-12-29T09:33:12.092Z,7.6
2017-12-29T09:34:13.457Z,7.6
2017-12-29T09:35:14.813Z,7.6
2017-12-29T09:36:16.199Z,7.6
2017-12-29T09:37:17.550Z,7.5
2017-12-29T09:38:18.918Z,7.6
2017-12-29T09:39:20.277Z,7.5
2017-12-29T09:40:21.636Z,7.4
2017-12-29T09:41:22.995Z,7.5
2017-12-29T09:42:24.352Z,7.5
2017-12-29T09:43:25.713Z,7.6
2017-12-29T09:44:27.074Z,7.6
2017-12-29T09:45:28.434Z,7.6
2017-12-29T09:46:29.798Z,7.6
2017-12-29T09:47:31.157Z,7.7
2017-12-29T09:48:32.521Z,7.7
2017-12-29T09:49:33.875Z,7.7
2017-12-29T09:50:35.237Z,7.7
2017-12-29T09:51:36.599Z,7.8
2017-12-29T09:52:37.960Z,7.7
2017-12-29T09:53:39.323Z,7.7
2017-12-29T09:54:40.686Z,7.7
2017-12-29T09:55:42.044Z,7.7
2017-12-29T09:56:43.404Z,7.7
2017-12-29T09:57:44.762Z,7.7
2017-12-29T09:58:46.124Z,7.8
2017-12-29T09:59:47.489Z,7.8
2017-12-29T10:00:48.851Z,7.8
2017-12-29T10:01:50.209Z,7.9
2017-12-29T10:02:51.572Z,8.0
2017-12-29T10:03:52.932Z,8.0
2017-12-29T10:04:54.304Z,8.1
2017-12-29T10:05:55.675Z,8.2
2017-12-29T10:06:57.038Z,8.0
2017-12-29T10:07:58.390Z,8.0
2017-12-29T10:08:59.757Z,8.0
2017-12-29T10:10:01.120Z,7.9
2017-12-29T10:11:02.497Z,8.0
2017-12-29T10:12:03.865Z,7.9
2017-12-29T10:13:05.226Z,7.9
2017-12-29T10:14:06.586Z,7.9
2017-12-29T10:15:07.955Z,7.9
2017-12-29T10:16:09.323Z,7.9
2017-12-29T10:17:10.702Z,7.9
2017-12-29T10:18:12.064Z,7.9
2017-12-29T10:19:13.425Z,7.9
2017-12-29T10:20:14.792Z,7.9
2017-12-29T10:21:16.149Z,7.9
2017-12-29T10:22:17.510Z,7.9
2017-12-29T10:23:19.371Z,7.9
2017-12-29T10:24:20.745Z,7.9
2017-12-29T10:25:22.096Z,7.9
2017-12-29T10:26:23.455Z,8.0
2017-12-29T10:27:24.814Z,8.0
2017-12-29T10:28:26.631Z,7.9
2017-12-29T10:29:28.744Z,7.9
2017-12-29T10:30:30.110Z,7.9
2017-12-29T10:31:31.472Z,7.8
2017-12-29T10:32:32.832Z,7.9
2017-12-29T10:33:34.193Z,8.0
2017-12-29T10:34:35.556Z,8.1
2017-12-29T10:35:36.915Z,8.1
2017-12-29T10:36:38.274Z,8.2
2017-12-29T10:37:39.647Z,8.2
2017-12-29T10:38:41.015Z,8.2
2017-12-29T10:39:42.374Z,8.2
2017-12-29T10:40:43.744Z,8.3
2017-12-29T10:41:45.102Z,8.1
2017-12-29T10:42:46.456Z,8.0
2017-12-29T10:43:47.830Z,7.9
2017-12-29T10:44:49.191Z,7.8
2017-12-29T10:45:50.734Z,7.7
2017-12-29T10:46:52.091Z,7.9
2017-12-29T10:47:53.457Z,8.0
2017-12-29T10:48:54.896Z,8.2
2017-12-29T10:49:56.261Z,8.2
2017-12-29T10:50:57.630Z,8.2
2017-12-29T10:51:58.999Z,8.2
2017-12-29T10:53:00.362Z,8.2
2017-12-29T10:54:01.714Z,8.3
2017-12-29T10:55:03.080Z,8.2
2017-12-29T10:56:04.437Z,8.3
2017-12-29T10:57:05.805Z,8.2
2017-12-29T11:07:09.508Z,6.2
2017-12-29T11:08:10.897Z,6.1
2017-12-29T11:09:12.236Z,6.0
2017-12-29T11:10:13.596Z,6.0
2017-12-29T11:11:14.970Z,6.1
2017-12-29T11:12:16.344Z,5.9
2017-12-29T11:13:17.706Z,5.7
2017-12-29T11:14:19.070Z,5.6
2017-12-29T11:15:20.433Z,5.2
2017-12-29T11:16:21.814Z,5.2
2017-12-29T11:17:23.186Z,5.2
2017-12-29T11:18:24.555Z,5.0
2017-12-29T11:19:25.961Z,5.0
2017-12-29T11:20:27.321Z,4.8
2017-12-29T11:21:28.686Z,4.9
2017-12-29T11:22:30.053Z,4.9
2017-12-29T11:23:31.434Z,4.9
2017-12-29T11:24:32.819Z,4.9
2017-12-29T11:25:34.200Z,4.8
2017-12-29T11:26:35.591Z,4.8
2017-12-29T11:27:36.954Z,5.0
2017-12-29T11:28:38.337Z,4.9
2017-12-29T11:29:39.708Z,5.2
2017-12-29T11:30:41.180Z,5.3
2017-12-29T11:31:42.575Z,5.3
2017-12-29T11:32:44.036Z,5.6
2017-12-29T11:33:45.465Z,5.8
2017-12-29T11:34:47.839Z,5.9
2017-12-29T11:35:49.231Z,6.1
2017-12-29T11:36:50.632Z,6.3
2017-12-29T11:37:51.997Z,6.3
2017-12-29T11:38:54.085Z,6.2
2017-12-29T11:39:55.447Z,6.0
2017-12-29T11:40:56.819Z,6.0
2017-12-29T11:41:58.196Z,6.0
2017-12-29T11:42:59.570Z,6.0
2017-12-29T11:44:00.945Z,6.2
2017-12-29T11:45:02.313Z,6.4
2017-12-29T11:46:03.729Z,6.1
2017-12-29T11:47:05.104Z,6.3
2017-12-29T11:48:06.531Z,6.2
2017-12-29T11:49:07.876Z,6.2
2017-12-29T11:50:09.277Z,6.3
2017-12-29T11:51:10.642Z,6.4
2017-12-29T11:52:12.000Z,6.5
2017-12-29T11:53:13.373Z,6.6
2017-12-29T11:54:14.769Z,6.6
2017-12-29T11:55:16.150Z,6.9
2017-12-29T11:56:17.549Z,6.4
2017-12-29T11:57:18.953Z,6.6
2017-12-29T11:58:20.319Z,6.2
2017-12-29T11:59:21.942Z,5.9
2017-12-29T12:00:23.739Z,5.9
2017-12-29T12:01:25.971Z,5.8
2017-12-29T12:02:27.820Z,5.7
2017-12-29T12:03:29.249Z,5.4
2017-12-29T12:04:30.640Z,5.2
2017-12-29T12:05:32.026Z,5.2
2017-12-29T12:06:33.408Z,5.2
2017-12-29T12:07:34.771Z,5.3
2017-12-29T12:08:36.215Z,5.1
2017-12-29T12:09:37.582Z,5.0
2017-12-29T12:10:38.951Z,4.8
2017-12-29T12:11:40.320Z,4.9
2017-12-29T12:12:41.688Z,4.9
2017-12-29T12:13:43.055Z,5.0
2017-12-29T12:14:44.432Z,5.0
2017-12-29T12:15:45.840Z,5.1
2017-12-29T12:16:47.212Z,5.1
2017-12-29T12:17:48.578Z,5.1
2017-12-29T12:18:49.949Z,5.2
2017-12-29T12:19:51.312Z,5.3
2017-12-29T12:20:52.677Z,5.3
2017-12-29T12:21:54.056Z,5.3
2017-12-29T12:22:55.417Z,5.4
2017-12-29T12:23:56.989Z,5.5
2017-12-29T12:24:58.357Z,5.2
2017-12-29T12:25:59.742Z,5.3
2017-12-29T12:27:01.112Z,5.3
2017-12-29T12:28:02.485Z,5.3
2017-12-29T12:29:03.846Z,5.3
2017-12-29T12:30:05.208Z,5.3
2017-12-29T12:31:06.575Z,5.2
2017-12-29T12:32:07.943Z,5.2
2017-12-29T12:33:09.311Z,5.2
2017-12-29T12:34:10.676Z,5.3
2017-12-29T12:35:12.047Z,5.2
2017-12-29T12:36:13.432Z,5.1
2017-12-29T12:37:14.810Z,5.2
2017-12-29T12:38:16.186Z,5.2
2017-12-29T12:39:17.549Z,5.1
2017-12-29T12:40:18.940Z,5.1
2017-12-29T12:41:21.265Z,5.0
2017-12-29T12:42:22.631Z,5.0
2017-12-29T12:43:23.997Z,5.1
2017-12-29T12:44:25.497Z,5.1
2017-12-29T12:45:26.863Z,5.2
2017-12-29T12:46:28.224Z,5.0
2017-12-29T12:47:29.591Z,5.0
2017-12-29T12:48:30.950Z,5.1
2017-12-29T12:49:32.310Z,4.9
2017-12-29T12:50:33.670Z,4.9
2017-12-29T12:51:35.048Z,5.0
2017-12-29T12:52:36.418Z,5.0
2017-12-29T12:53:37.778Z,5.1
2017-12-29T12:54:39.153Z,5.1
2017-12-29T12:55:40.520Z,5.1
2017-12-29T12:56:41.888Z,5.1
2017-12-29T12:57:43.242Z,5.1
2017-12-29T12:58:44.630Z,5.1
2017-12-29T12:59:46.000Z,5.0
2017-12-29T13:00:47.366Z,5.1
2017-12-29T13:01:48.727Z,5.1
2017-12-29T13:02:50.114Z,5.1
2017-12-29T13:03:51.456Z,5.2
2017-12-29T13:04:52.819Z,5.0
2017-12-29T13:05:54.208Z,5.0
2017-12-29T13:06:55.560Z,5.0
2017-12-29T13:07:56.932Z,5.0
2017-12-29T13:08:58.294Z,5.1
2017-12-29T13:09:59.658Z,5.1
2017-12-29T13:11:01.040Z,5.2
2017-12-29T13:12:02.395Z,5.1
2017-12-29T13:13:03.780Z,5.1
2017-12-29T13:14:05.147Z,5.1
2017-12-29T13:15:06.520Z,5.0
2017-12-29T13:16:07.947Z,5.0
2017-12-29T13:17:09.306Z,5.0
2017-12-29T13:18:10.668Z,5.0
2017-12-29T13:19:12.041Z,5.1
2017-12-29T13:20:13.403Z,5.1
2017-12-29T13:21:14.770Z,5.0
2017-12-29T13:22:16.136Z,5.0
2017-12-29T13:23:17.505Z,5.1
2017-12-29T13:24:18.848Z,5.0
2017-12-29T13:25:20.226Z,5.0
2017-12-29T13:26:21.593Z,5.0
2017-12-29T13:27:22.951Z,5.1
2017-12-29T13:28:24.312Z,5.1
2017-12-29T13:29:25.681Z,5.1
2017-12-29T13:30:27.047Z,5.1
2017-12-29T13:31:28.402Z,5.2
2017-12-29T13:32:29.763Z,5.2
2017-12-29T13:33:31.125Z,5.1
2017-12-29T13:34:32.497Z,5.1
2017-12-29T13:35:33.865Z,5.1
2017-12-29T13:36:35.225Z,5.1
2017-12-29T13:37:36.602Z,5.1
2017-12-29T13:38:37.948Z,5.0
2017-12-29T13:39:39.304Z,5.1
2017-12-29T13:40:40.677Z,5.1
2017-12-29T13:41:42.039Z,5.1
2017-12-29T13:42:43.396Z,5.0
2017-12-29T13:43:44.880Z,5.1
2017-12-29T13:44:46.262Z,5.1
2017-12-29T13:45:47.633Z,5.1
2017-12-29T13:46:49.003Z,5.1
2017-12-29T13:47:50.366Z,5.0
2017-12-29T13:48:51.721Z,5.0
2017-12-29T13:49:53.084Z,5.0
2017-12-29T13:50:54.439Z,5.0
2017-12-29T13:51:55.806Z,5.1
2017-12-29T13:52:57.169Z,5.1
2017-12-29T13:53:58.528Z,5.1
2017-12-29T13:54:59.890Z,5.2
2017-12-29T13:56:01.248Z,5.1
2017-12-29T13:57:02.618Z,5.1
2017-12-29T13:58:03.980Z,5.1
2017-12-29T13:59:05.339Z,5.2
2017-12-29T14:00:06.703Z,5.2
2017-12-29T14:01:08.063Z,5.2
2017-12-29T14:02:09.437Z,5.1
2017-12-29T14:03:10.793Z,5.1
2017-12-29T14:04:12.161Z,5.1
2017-12-29T14:05:13.520Z,5.1
2017-12-29T14:06:14.878Z,5.1
2017-12-29T14:07:16.238Z,5.2
2017-12-29T14:08:17.601Z,5.1
2017-12-29T14:09:18.966Z,5.1
2017-12-29T14:10:20.328Z,5.1
2017-12-29T14:11:21.690Z,5.1
2017-12-29T14:12:23.053Z,5.1
2017-12-29T14:13:24.412Z,5.1
2017-12-29T14:14:25.774Z,5.1